createdAt,value
2019-05-23T00:02:51.396Z,17.33
2019-05-23T00:05:40.734Z,17.07
2019-05-23T00:08:30.053Z,17.50
2019-05-23T00:11:18.926Z,19.37
2019-05-23T00:14:20.579Z,17.83
2019-05-23T00:16:51.932Z,17.67
2019-05-23T00:19:21.814Z,18.47
2019-05-23T00:21:53.026Z,18.87
2019-05-23T00:24:23.992Z,16.67
2019-05-23T00:26:54.516Z,18.60
2019-05-23T00:29:25.845Z,17.57
2019-05-23T00:31:57.285Z,18.23
2019-05-23T00:34:29.304Z,20.83
2019-05-23T00:36:59.838Z,18.47
2019-05-23T00:39:31.297Z,20.13
2019-05-23T00:42:01.134Z,18.07
2019-05-23T00:44:31.902Z,17.83
2019-05-23T00:47:02.143Z,19.10
2019-05-23T00:49:32.033Z,19.03
2019-05-23T00:52:01.832Z,18.87
2019-05-23T00:54:31.860Z,20.43
2019-05-23T00:57:02.249Z,22.20
2019-05-23T00:59:32.982Z,26.10
2019-05-23T01:02:02.992Z,21.67
2019-05-23T01:04:34.260Z,21.43
2019-05-23T01:07:04.154Z,25.17
2019-05-23T01:09:35.297Z,20.97
2019-05-23T01:12:05.885Z,23.77
2019-05-23T01:14:36.182Z,23.20
2019-05-23T01:17:07.388Z,22.33
2019-05-23T01:19:37.253Z,20.03
2019-05-23T01:22:14.756Z,20.27
2019-05-23T01:24:48.498Z,22.73
2019-05-23T01:27:19.238Z,21.80
2019-05-23T01:29:50.320Z,24.37
2019-05-23T01:32:22.108Z,24.67
2019-05-23T01:34:52.918Z,26.87
2019-05-23T01:37:24.680Z,23.60
2019-05-23T01:39:55.487Z,25.37
2019-05-23T01:42:25.767Z,25.20
2019-05-23T01:44:55.629Z,21.03
2019-05-23T01:47:26.198Z,24.57
2019-05-23T01:49:56.749Z,26.57
2019-05-23T01:52:26.541Z,25.23
2019-05-23T01:54:56.802Z,23.80
2019-05-23T01:57:26.741Z,23.00
2019-05-23T02:00:08.941Z,23.90
2019-05-23T02:02:30.404Z,22.00
2019-05-23T02:05:00.538Z,20.93
2019-05-23T02:07:30.830Z,24.37
2019-05-23T02:10:00.837Z,24.03
2019-05-23T02:12:31.576Z,23.10
2019-05-23T02:15:03.472Z,23.30
2019-05-23T02:17:33.501Z,27.43
2019-05-23T02:20:04.247Z,21.37
2019-05-23T02:22:34.276Z,24.50
2019-05-23T02:25:08.011Z,25.33
2019-05-23T02:27:40.114Z,23.80
2019-05-23T02:30:32.114Z,21.60
2019-05-23T02:32:45.437Z,27.63
2019-05-23T02:35:15.701Z,24.53
2019-05-23T02:37:47.205Z,21.60
2019-05-23T02:40:22.342Z,27.57
2019-05-23T02:42:56.797Z,23.80
2019-05-23T02:45:45.970Z,24.83
2019-05-23T02:48:18.645Z,22.80
2019-05-23T02:50:55.157Z,25.27
2019-05-23T02:53:28.023Z,27.17
2019-05-23T02:56:01.538Z,23.87
2019-05-23T02:58:38.711Z,22.10
2019-05-23T03:01:18.563Z,22.63
2019-05-23T03:03:49.999Z,22.07
2019-05-23T03:06:22.081Z,20.97
2019-05-23T03:08:52.343Z,25.57
2019-05-23T03:11:32.721Z,25.63
2019-05-23T03:14:04.623Z,26.33
2019-05-23T03:16:38.434Z,24.97
2019-05-23T03:19:15.885Z,22.90
2019-05-23T03:21:48.117Z,29.60
2019-05-23T03:24:19.042Z,25.70
2019-05-23T03:27:01.433Z,23.83
2019-05-23T03:29:33.421Z,24.40
2019-05-23T03:32:05.834Z,24.73
2019-05-23T03:34:37.289Z,27.87
2019-05-23T03:37:09.885Z,23.93
2019-05-23T03:39:41.392Z,23.23
2019-05-23T03:42:12.584Z,25.87
2019-05-23T03:44:44.937Z,28.57
2019-05-23T03:47:16.411Z,27.37
2019-05-23T03:49:48.149Z,24.57
2019-05-23T03:52:19.113Z,24.97
2019-05-23T03:54:50.327Z,26.87
2019-05-23T03:57:25.311Z,25.17
2019-05-23T03:59:53.873Z,21.57
2019-05-23T04:02:25.385Z,32.73
2019-05-23T04:04:57.319Z,26.83
2019-05-23T04:07:29.060Z,26.43
2019-05-23T04:09:58.937Z,24.90
2019-05-23T04:12:29.091Z,26.60
2019-05-23T04:14:59.376Z,26.00
2019-05-23T04:17:29.439Z,27.13
2019-05-23T04:19:59.303Z,22.77
2019-05-23T04:22:29.947Z,26.10
2019-05-23T04:25:02.197Z,22.33
2019-05-23T04:27:31.490Z,23.23
2019-05-23T04:30:01.367Z,21.10
2019-05-23T04:32:32.069Z,23.60
2019-05-23T04:35:01.935Z,29.07
2019-05-23T04:37:32.290Z,21.67
2019-05-23T04:40:02.348Z,25.23
2019-05-23T04:42:32.718Z,19.37
2019-05-23T04:45:03.249Z,19.20
2019-05-23T04:47:33.283Z,22.83
2019-05-23T04:50:04.018Z,23.53
2019-05-23T04:52:33.989Z,19.77
2019-05-23T04:55:04.696Z,26.73
2019-05-23T04:57:34.499Z,19.43
2019-05-23T05:00:12.425Z,19.40
2019-05-23T05:02:43.253Z,19.87
2019-05-23T05:05:13.678Z,19.20
2019-05-23T05:07:44.100Z,19.83
2019-05-23T05:10:17.620Z,20.00
2019-05-23T05:12:47.780Z,16.90
2019-05-23T05:15:17.823Z,19.97
2019-05-23T05:17:48.275Z,16.03
2019-05-23T05:20:18.413Z,16.93
2019-05-23T05:22:48.357Z,16.87
2019-05-23T05:25:20.730Z,18.00
2019-05-23T05:27:50.884Z,21.83
2019-05-23T05:30:21.730Z,18.37
2019-05-23T05:32:51.536Z,17.83
2019-05-23T05:35:21.403Z,17.47
2019-05-23T05:37:51.208Z,16.23
2019-05-23T05:40:21.063Z,15.07
2019-05-23T05:42:51.655Z,18.80
2019-05-23T05:45:21.952Z,18.30
2019-05-23T05:47:51.765Z,16.97
2019-05-23T05:50:22.283Z,17.53
2019-05-23T05:52:52.100Z,18.73
2019-05-23T05:55:22.271Z,15.83
2019-05-23T05:57:52.226Z,19.20
2019-05-23T06:00:27.295Z,19.50
2019-05-23T06:03:04.405Z,16.77
2019-05-23T06:05:41.463Z,18.80
2019-05-23T06:08:12.719Z,24.30
2019-05-23T06:10:43.147Z,17.47
2019-05-23T06:13:13.032Z,18.07
2019-05-23T06:15:44.749Z,18.97
2019-05-23T06:18:14.539Z,17.87
2019-05-23T06:20:46.557Z,22.17
2019-05-23T06:23:17.551Z,16.13
2019-05-23T06:25:47.371Z,19.00
2019-05-23T06:28:18.884Z,16.70
2019-05-23T06:30:50.119Z,18.30
2019-05-23T06:33:23.615Z,18.20
2019-05-23T06:35:52.736Z,19.00
2019-05-23T06:38:23.074Z,20.77
2019-05-23T06:40:54.635Z,20.87
2019-05-23T06:43:25.008Z,18.90
2019-05-23T06:45:54.909Z,24.87
2019-05-23T06:48:25.208Z,27.67
2019-05-23T06:50:56.063Z,21.50
2019-05-23T06:53:25.848Z,19.53
2019-05-23T06:55:55.731Z,22.07
2019-05-23T06:58:26.076Z,19.33
2019-05-23T07:00:56.011Z,19.97
2019-05-23T07:03:41.876Z,22.20
2019-05-23T07:05:58.672Z,17.97
2019-05-23T07:08:30.256Z,18.83
2019-05-23T07:11:00.125Z,18.50
2019-05-23T07:13:31.561Z,20.67
2019-05-23T07:16:01.653Z,21.83
2019-05-23T07:18:31.535Z,20.33
2019-05-23T07:21:01.421Z,19.80
2019-05-23T07:23:31.293Z,19.33
2019-05-23T07:26:01.091Z,19.13
2019-05-23T07:28:31.032Z,17.17
2019-05-23T07:31:01.203Z,18.97
2019-05-23T07:33:31.011Z,19.07
2019-05-23T07:36:00.799Z,21.20
2019-05-23T07:38:30.593Z,17.70
2019-05-23T07:41:00.588Z,19.17
2019-05-23T07:43:30.925Z,18.37
2019-05-23T07:46:01.849Z,19.00
2019-05-23T07:48:33.267Z,21.97
2019-05-23T07:51:03.089Z,20.50
2019-05-23T07:53:34.600Z,17.97
2019-05-23T07:56:06.477Z,22.63
2019-05-23T07:58:36.336Z,19.53
2019-05-23T08:01:10.775Z,19.10
2019-05-23T08:03:41.237Z,17.80
2019-05-23T08:06:11.874Z,21.37
2019-05-23T08:08:42.272Z,18.50
2019-05-23T08:11:12.138Z,19.93
2019-05-23T08:13:42.471Z,21.10
2019-05-23T08:16:12.921Z,19.70
2019-05-23T08:18:42.880Z,20.33
2019-05-23T08:21:12.837Z,17.80
2019-05-23T08:23:42.729Z,19.00
2019-05-23T08:26:12.972Z,18.30
2019-05-23T08:29:11.467Z,15.67
2019-05-23T08:31:15.051Z,17.07
2019-05-23T08:33:44.873Z,18.20
2019-05-23T08:36:15.669Z,18.73
2019-05-23T08:38:45.474Z,18.10
2019-05-23T08:41:15.338Z,18.47
2019-05-23T08:43:45.226Z,20.00
2019-05-23T08:46:16.874Z,21.67
2019-05-23T08:48:46.871Z,19.57
2019-05-23T08:51:17.581Z,19.47
2019-05-23T08:53:47.456Z,18.93
2019-05-23T08:56:19.756Z,21.00
2019-05-23T08:58:49.683Z,19.33
2019-05-23T09:01:19.753Z,18.77
2019-05-23T09:03:49.831Z,20.23
2019-05-23T09:06:20.065Z,21.57
2019-05-23T09:08:51.738Z,25.17
2019-05-23T09:11:21.897Z,19.95
2019-05-23T09:13:52.455Z,18.95
2019-05-23T09:16:22.308Z,20.90
2019-05-23T09:18:52.189Z,19.87
2019-05-23T09:21:22.223Z,19.02
2019-05-23T09:23:52.101Z,15.83
2019-05-23T09:26:23.433Z,19.60
2019-05-23T09:28:53.269Z,19.65
2019-05-23T09:31:23.909Z,18.25
2019-05-23T09:33:53.792Z,17.82
2019-05-23T09:36:23.581Z,20.95
2019-05-23T09:38:53.384Z,20.12
2019-05-23T09:41:23.184Z,15.32
2019-05-23T09:43:53.056Z,16.60
2019-05-23T09:46:22.934Z,20.32
2019-05-23T09:48:53.286Z,16.48
2019-05-23T09:51:23.226Z,19.73
2019-05-23T09:53:53.031Z,18.98
2019-05-23T09:56:22.824Z,15.43
2019-05-23T09:58:52.718Z,16.20
2019-05-23T10:01:23.728Z,12.88
2019-05-23T10:03:53.785Z,15.88
2019-05-23T10:06:23.586Z,17.32
2019-05-23T10:08:54.879Z,19.07
2019-05-23T10:11:26.445Z,15.38
2019-05-23T10:13:58.800Z,15.32
2019-05-23T10:16:29.228Z,13.20
2019-05-23T10:18:59.608Z,13.95
2019-05-23T10:21:32.195Z,12.58
2019-05-23T10:24:05.316Z,15.03
2019-05-23T10:26:35.116Z,12.68
2019-05-23T10:29:05.186Z,11.30
2019-05-23T10:31:35.069Z,15.85
2019-05-23T10:34:04.920Z,14.07
2019-05-23T10:36:34.751Z,9.15
2019-05-23T10:39:07.590Z,10.30
2019-05-23T10:41:37.400Z,11.78
2019-05-23T10:44:07.197Z,8.38
2019-05-23T10:46:37.124Z,10.93
2019-05-23T10:49:06.999Z,11.43
2019-05-23T10:51:36.800Z,9.80
2019-05-23T10:54:07.102Z,11.48
2019-05-23T10:56:37.421Z,8.65
2019-05-23T10:59:07.359Z,7.22
2019-05-23T11:01:37.409Z,9.40
2019-05-23T11:04:07.260Z,8.30
2019-05-23T11:06:37.053Z,9.70
2019-05-23T11:09:09.282Z,9.85
2019-05-23T11:11:39.633Z,9.43
2019-05-23T11:14:09.856Z,9.35
2019-05-23T11:16:40.511Z,10.18
2019-05-23T11:19:11.076Z,11.55
2019-05-23T11:21:40.875Z,8.08
2019-05-23T11:24:10.828Z,8.63
2019-05-23T11:26:40.767Z,10.20
2019-05-23T11:29:10.569Z,7.90
2019-05-23T11:31:40.441Z,6.30
2019-05-23T11:34:10.393Z,6.97
2019-05-23T11:36:40.163Z,6.30
2019-05-23T11:39:10.746Z,6.70
2019-05-23T11:41:40.691Z,7.08
2019-05-23T11:44:10.554Z,5.85
2019-05-23T11:46:40.808Z,7.03
2019-05-23T11:49:10.641Z,7.08
2019-05-23T11:51:40.567Z,8.15
2019-05-23T11:54:10.888Z,8.63
2019-05-23T11:56:41.540Z,6.33
2019-05-23T11:59:11.404Z,4.97
2019-05-23T12:01:57.893Z,6.10
2019-05-23T12:04:28.237Z,4.95
2019-05-23T12:06:59.911Z,5.90
2019-05-23T12:09:29.778Z,6.17
2019-05-23T12:11:59.564Z,5.72
2019-05-23T12:14:30.491Z,9.63
2019-05-23T12:17:00.544Z,8.43
2019-05-23T12:19:30.346Z,6.25
2019-05-23T12:22:00.301Z,6.87
2019-05-23T12:24:34.802Z,6.03
2019-05-23T12:27:01.775Z,6.08
2019-05-23T12:29:31.565Z,5.95
2019-05-23T12:32:01.413Z,5.65
2019-05-23T12:34:31.252Z,8.68
2019-05-23T12:37:18.630Z,4.60
2019-05-23T12:39:32.656Z,7.15
2019-05-23T12:42:02.473Z,6.62
2019-05-23T12:44:32.280Z,5.08
2019-05-23T12:47:03.271Z,4.12
2019-05-23T12:49:34.711Z,4.72
2019-05-23T12:52:05.800Z,4.35
2019-05-23T12:54:35.673Z,6.30
2019-05-23T12:57:05.658Z,6.53
2019-05-23T12:59:36.820Z,5.25
2019-05-23T13:02:08.311Z,5.33
2019-05-23T13:04:38.179Z,4.20
2019-05-23T13:07:08.203Z,3.65
2019-05-23T13:09:38.664Z,4.42
2019-05-23T13:12:08.455Z,5.33
2019-05-23T13:14:38.603Z,4.33
2019-05-23T13:17:08.383Z,2.75
2019-05-23T13:19:38.187Z,5.67
2019-05-23T13:22:09.297Z,3.98
2019-05-23T13:24:51.903Z,4.35
2019-05-23T13:27:10.719Z,4.50
2019-05-23T13:29:40.597Z,6.40
2019-05-23T13:32:10.449Z,5.15
2019-05-23T13:34:40.303Z,7.95
2019-05-23T13:37:16.631Z,5.22
2019-05-23T13:39:43.600Z,4.28
2019-05-23T13:42:13.440Z,4.35
2019-05-23T13:44:43.383Z,6.05
2019-05-23T13:47:13.230Z,6.78
2019-05-23T13:49:43.310Z,5.80
2019-05-23T13:52:13.259Z,7.17
2019-05-23T13:54:44.229Z,8.65
2019-05-23T13:57:14.896Z,7.22
2019-05-23T13:59:44.856Z,5.42
2019-05-23T14:02:15.786Z,3.50
2019-05-23T14:04:45.640Z,5.87
2019-05-23T14:07:16.395Z,7.45
2019-05-23T14:09:46.258Z,6.78
2019-05-23T14:12:21.633Z,8.25
2019-05-23T14:14:48.694Z,3.30
2019-05-23T14:17:20.137Z,4.75
2019-05-23T14:19:50.191Z,4.40
2019-05-23T14:22:20.516Z,5.65
2019-05-23T14:24:52.270Z,4.03
2019-05-23T14:27:23.801Z,3.33
2019-05-23T14:29:53.656Z,5.28
2019-05-23T14:32:34.360Z,6.80
2019-05-23T14:35:06.108Z,2.33
2019-05-23T14:37:37.675Z,3.58
2019-05-23T14:40:09.312Z,5.25
2019-05-23T14:42:52.916Z,3.70
2019-05-23T14:45:41.526Z,4.97
2019-05-23T14:48:13.340Z,4.78
2019-05-23T14:51:00.346Z,5.58
2019-05-23T14:53:47.924Z,7.92
2019-05-23T14:56:18.544Z,4.00
2019-05-23T14:58:48.410Z,3.27
2019-05-23T15:01:18.323Z,5.60
2019-05-23T15:03:48.177Z,11.15
2019-05-23T15:06:18.724Z,3.70
2019-05-23T15:08:51.538Z,4.62
2019-05-23T15:11:20.172Z,4.08
2019-05-23T15:13:50.038Z,2.42
2019-05-23T15:16:20.099Z,4.22
2019-05-23T15:18:49.964Z,4.28
2019-05-23T15:21:19.841Z,3.22
2019-05-23T15:23:49.692Z,2.25
2019-05-23T15:26:23.551Z,3.40
2019-05-23T15:28:51.134Z,4.83
2019-05-23T15:31:23.548Z,4.17
2019-05-23T15:33:53.403Z,3.37
2019-05-23T15:36:23.621Z,3.92
2019-05-23T15:39:08.260Z,5.87
2019-05-23T15:41:24.963Z,4.15
2019-05-23T15:43:55.212Z,2.70
2019-05-23T15:46:25.385Z,3.15
2019-05-23T15:48:55.164Z,5.75
2019-05-23T15:51:26.752Z,4.62
2019-05-23T15:54:04.192Z,4.92
2019-05-23T15:56:45.752Z,3.62
2019-05-23T15:59:20.615Z,6.10
2019-05-23T16:01:55.185Z,4.40
2019-05-23T16:04:25.623Z,3.05
2019-05-23T16:06:56.627Z,4.97
2019-05-23T16:09:30.267Z,3.05
2019-05-23T16:11:59.090Z,4.30
2019-05-23T16:14:29.190Z,2.75
2019-05-23T16:16:59.115Z,3.62
2019-05-23T16:19:28.968Z,3.42
2019-05-23T16:21:58.838Z,2.75
2019-05-23T16:24:28.676Z,5.03
2019-05-23T16:26:58.629Z,2.92
2019-05-23T16:29:28.487Z,4.20
2019-05-23T16:31:58.489Z,3.83
2019-05-23T16:34:28.907Z,4.45
2019-05-23T16:36:58.687Z,11.40
2019-05-23T16:39:45.441Z,15.58
2019-05-23T16:42:00.765Z,5.92
2019-05-23T16:44:30.637Z,15.75
2019-05-23T16:47:00.611Z,4.62
2019-05-23T16:49:30.427Z,4.60
2019-05-23T16:52:00.196Z,5.70
2019-05-23T16:54:31.708Z,4.37
2019-05-23T16:57:03.213Z,8.23
2019-05-23T16:59:34.921Z,3.27
2019-05-23T17:02:09.807Z,2.87
2019-05-23T17:04:41.401Z,3.62
2019-05-23T17:07:13.569Z,2.90
2019-05-23T17:09:45.193Z,4.92
2019-05-23T17:12:22.200Z,2.75
2019-05-23T17:15:08.619Z,3.20
2019-05-23T17:18:02.982Z,3.45
2019-05-23T17:20:47.687Z,3.10
2019-05-23T17:23:37.792Z,2.77
2019-05-23T17:26:11.973Z,2.70
2019-05-23T17:28:43.402Z,4.10
2019-05-23T17:31:14.899Z,3.00
2019-05-23T17:33:46.434Z,2.95
2019-05-23T17:36:16.763Z,1.92
2019-05-23T17:38:46.549Z,3.40
2019-05-23T17:41:16.887Z,3.90
2019-05-23T17:43:46.677Z,4.20
2019-05-23T17:46:16.523Z,2.10
2019-05-23T17:48:46.307Z,2.47
2019-05-23T17:51:16.225Z,3.37
2019-05-23T17:53:46.128Z,2.60
2019-05-23T17:56:15.962Z,5.00
2019-05-23T17:58:45.916Z,2.22
2019-05-23T18:01:16.435Z,6.17
2019-05-23T18:03:46.259Z,2.80
2019-05-23T18:06:16.461Z,5.90
2019-05-23T18:08:46.414Z,4.75
2019-05-23T18:11:16.336Z,2.92
2019-05-23T18:13:46.150Z,4.12
2019-05-23T18:16:18.062Z,3.55
2019-05-23T18:18:48.199Z,3.05
2019-05-23T18:21:19.476Z,3.47
2019-05-23T18:23:51.882Z,5.22
2019-05-23T18:26:21.698Z,3.53
2019-05-23T18:28:52.032Z,4.20
2019-05-23T18:31:23.456Z,4.47
2019-05-23T18:33:53.346Z,3.30
2019-05-23T18:36:23.250Z,4.67
2019-05-23T18:38:53.667Z,2.85
2019-05-23T18:41:24.398Z,4.35
2019-05-23T18:43:54.945Z,3.27
2019-05-23T18:46:29.378Z,3.85
2019-05-23T18:48:59.184Z,5.33
2019-05-23T18:51:29.770Z,3.08
2019-05-23T18:53:59.552Z,2.40
2019-05-23T18:56:29.505Z,3.02
2019-05-23T18:58:59.589Z,3.08
2019-05-23T19:01:29.712Z,3.10
2019-05-23T19:04:00.073Z,5.90
2019-05-23T19:06:30.262Z,5.12
2019-05-23T19:09:00.136Z,3.27
2019-05-23T19:11:30.293Z,3.90
2019-05-23T19:14:00.639Z,5.97
2019-05-23T19:16:31.531Z,6.75
2019-05-23T19:19:05.456Z,3.15
2019-05-23T19:21:40.004Z,4.67
2019-05-23T19:24:11.014Z,7.28
2019-05-23T19:26:41.341Z,4.50
2019-05-23T19:29:12.004Z,2.67
2019-05-23T19:31:42.604Z,3.42
2019-05-23T19:34:12.896Z,2.58
2019-05-23T19:36:42.899Z,3.72
2019-05-23T19:39:13.020Z,3.50
2019-05-23T19:41:43.029Z,6.55
2019-05-23T19:44:12.908Z,2.77
2019-05-23T19:46:44.611Z,6.03
2019-05-23T19:49:14.932Z,5.62
2019-05-23T19:51:45.192Z,5.03
2019-05-23T19:54:15.413Z,11.63
2019-05-23T19:56:45.264Z,3.27
2019-05-23T19:59:15.081Z,6.80
2019-05-23T20:01:46.520Z,8.73
2019-05-23T20:04:17.609Z,7.35
2019-05-23T20:06:47.730Z,11.53
2019-05-23T20:09:19.448Z,9.40
2019-05-23T20:11:54.162Z,15.60
2019-05-23T20:14:21.966Z,13.58
2019-05-23T20:16:51.912Z,8.20
2019-05-23T20:19:21.854Z,6.70
2019-05-23T20:21:51.715Z,7.25
2019-05-23T20:24:21.574Z,8.58
2019-05-23T20:26:51.439Z,8.63
2019-05-23T20:29:21.288Z,13.75
2019-05-23T20:31:52.263Z,10.53
2019-05-23T20:34:22.171Z,7.60
2019-05-23T20:36:52.037Z,10.32
2019-05-23T20:39:22.687Z,8.58
2019-05-23T20:41:53.049Z,4.42
2019-05-23T20:44:23.010Z,5.35
2019-05-23T20:46:52.826Z,5.10
2019-05-23T20:49:27.022Z,4.58
2019-05-23T20:51:55.489Z,4.92
2019-05-23T20:54:25.284Z,8.43
2019-05-23T20:56:55.083Z,6.47
2019-05-23T20:59:24.859Z,5.47
2019-05-23T21:01:54.657Z,7.92
2019-05-23T21:04:24.440Z,3.52
2019-05-23T21:06:54.243Z,5.03
2019-05-23T21:09:24.404Z,4.67
2019-05-23T21:11:54.195Z,4.55
2019-05-23T21:14:24.187Z,4.80
2019-05-23T21:16:53.983Z,4.25
2019-05-23T21:19:23.852Z,4.55
2019-05-23T21:21:53.815Z,6.27
2019-05-23T21:24:23.626Z,10.33
2019-05-23T21:26:53.442Z,8.85
2019-05-23T21:29:23.231Z,5.55
2019-05-23T21:31:53.036Z,7.33
2019-05-23T21:34:22.876Z,6.83
2019-05-23T21:36:52.685Z,7.72
2019-05-23T21:39:22.534Z,5.97
2019-05-23T21:41:52.336Z,6.63
2019-05-23T21:44:22.119Z,8.98
2019-05-23T21:46:52.039Z,6.22
2019-05-23T21:49:21.904Z,8.05
2019-05-23T21:51:52.111Z,5.42
2019-05-23T21:54:22.100Z,5.67
2019-05-23T21:56:51.886Z,6.27
2019-05-23T21:59:21.751Z,6.70
2019-05-23T22:01:58.981Z,8.33
2019-05-23T22:04:30.606Z,7.93
2019-05-23T22:07:01.052Z,6.62
2019-05-23T22:09:31.075Z,6.30
2019-05-23T22:12:01.204Z,8.57
2019-05-23T22:14:31.194Z,4.77
2019-05-23T22:17:01.065Z,6.87
2019-05-23T22:19:31.990Z,7.20
2019-05-23T22:22:01.783Z,5.60
2019-05-23T22:24:31.585Z,6.60
2019-05-23T22:27:01.751Z,10.47
2019-05-23T22:29:31.669Z,6.17
2019-05-23T22:32:02.771Z,6.43
2019-05-23T22:34:43.523Z,5.50
2019-05-23T22:37:17.911Z,9.00
2019-05-23T22:39:47.776Z,6.63
2019-05-23T22:42:18.830Z,7.23
2019-05-23T22:44:48.791Z,5.90
2019-05-23T22:47:18.812Z,6.13
2019-05-23T22:49:48.663Z,6.77
2019-05-23T22:52:18.464Z,6.83
2019-05-23T22:54:48.238Z,5.77
2019-05-23T22:57:18.108Z,6.40
2019-05-23T22:59:48.880Z,7.47
2019-05-23T23:02:19.116Z,9.43
2019-05-23T23:04:48.907Z,12.10
2019-05-23T23:07:18.976Z,6.62
2019-05-23T23:09:49.030Z,8.10
2019-05-23T23:12:18.907Z,6.23
2019-05-23T23:14:48.803Z,7.93
2019-05-23T23:17:20.038Z,7.60
2019-05-23T23:19:49.947Z,6.30
2019-05-23T23:22:19.759Z,6.93
2019-05-23T23:24:49.532Z,8.50
2019-05-23T23:27:19.327Z,4.90
2019-05-23T23:29:49.475Z,6.53
2019-05-23T23:32:19.308Z,6.90
2019-05-23T23:34:49.111Z,5.50
2019-05-23T23:37:18.936Z,8.07
2019-05-23T23:39:48.795Z,6.77
2019-05-23T23:42:18.639Z,6.63
2019-05-23T23:44:47.764Z,7.23
2019-05-23T23:47:35.105Z,9.67
2019-05-23T23:50:25.706Z,7.97
2019-05-23T23:53:13.887Z,6.23
2019-05-23T23:56:02.318Z,6.57
2019-05-23T23:58:31.408Z,6.40
